This is the latest recevied weather packets stored in our database for station/object OE-11361. If no packets are shown the sender has not sent any weather packets the latest 10 day(s).
| Time | Temp. | Humidity | Pressure | Rain* | Wind** | Luminosity | Snow |
|---|---|---|---|---|---|---|---|
| 1787902876 | 25° C | 59% | 1010.6 hPa | 0 mm | - | 283 W/m² | - |
| 1787902504 | 24.44° C | 58% | 1010.4 hPa | 0 mm | - | 303 W/m² | - |
| 1787901904 | 23.89° C | 64% | 1010.4 hPa | 0 mm | - | 283 W/m² | - |
| 1787901076 | 23.89° C | 63% | 1010.5 hPa | 0 mm | - | 255 W/m² | - |
| 1787900703 | 23.33° C | 66% | 1010.9 hPa | 0 mm | - | 241 W/m² | - |
| 1787900104 | 23.33° C | 68% | 1011.2 hPa | 0 mm | - | 186 W/m² | - |
| 1787899277 | 23.33° C | 66% | 1011.2 hPa | 0 mm | - | 214 W/m² | - |
| 1787898904 | 22.78° C | 66% | 1011.4 hPa | 0 mm | - | 165 W/m² | - |
| 1787898304 | 22.22° C | 70% | 1011.4 hPa | 0 mm | - | 131 W/m² | - |
| 1787897476 | 22.22° C | 70% | 1011.5 hPa | 0 mm | - | 110 W/m² | - |
| 1787897103 | 22.22° C | 69% | 1011.5 hPa | 0 mm | - | 76 W/m² | - |
| 1787896503 | 22.22° C | 68% | 1011.4 hPa | 0 mm | - | 69 W/m² | - |
| 1787895676 | 21.67° C | 70% | 1011.8 hPa | 0 mm | - | 55 W/m² | - |
| 1787895304 | 21.11° C | 73% | 1011.8 hPa | 0 mm | - | 34 W/m² | - |
| 1787894704 | 21.67° C | 68% | 1011.5 hPa | 0 mm | - | 21 W/m² | - |
| 1787893877 | 21.67° C | 70% | 1011.6 hPa | 0 mm | - | 14 W/m² | - |
| 1787893504 | 22.22° C | 68% | 1011.1 hPa | 0 mm | - | 14 W/m² | - |
| 1787892904 | 21.67° C | 70% | 1011.2 hPa | 0 mm | - | 7 W/m² | - |
| 1787892076 | 21.11° C | 74% | 1011.5 hPa | 0 mm | - | 7 W/m² | - |
| 1787891703 | 21.67° C | 69% | 1011.3 hPa | 0 mm | - | 0 W/m² | - |
| 1787891104 | 21.67° C | 71% | 1011.5 hPa | 0 mm | - | 0 W/m² | - |
| 1787890276 | 22.22° C | 68% | 1011.5 hPa | 0 mm | - | 0 W/m² | - |
| 1787889904 | 21.67° C | 70% | 1011.5 hPa | 0 mm | - | 0 W/m² | - |
| 1787889304 | 21.67° C | 71% | 1011.7 hPa | 0 mm | - | 0 W/m² | - |
| 1787888703 | 22.22° C | 68% | 1011.6 hPa | 0 mm | - | 0 W/m² | - |
* Rain latest hour (hover to see other rain measurements)
** Current wind speed in m/s (hover to see current wind gust speed)